createdAt,value
2023-11-17T00:00:13.681Z,5.60
2023-11-17T00:02:41.680Z,5.50
2023-11-17T00:05:08.946Z,5.60
2023-11-17T00:07:35.877Z,5.50
2023-11-17T00:10:05.108Z,5.50
2023-11-17T00:12:41.018Z,5.50
2023-11-17T00:15:16.454Z,5.40
2023-11-17T00:17:52.057Z,5.40
2023-11-17T00:20:26.892Z,5.50
2023-11-17T00:23:02.675Z,5.40
2023-11-17T00:25:30.692Z,5.40
2023-11-17T00:27:58.875Z,5.40
2023-11-17T00:30:26.136Z,5.40
2023-11-17T00:32:53.074Z,5.30
2023-11-17T00:35:21.652Z,5.30
2023-11-17T00:37:48.658Z,5.20
2023-11-17T00:40:15.652Z,5.20
2023-11-17T00:42:42.765Z,5.30
2023-11-17T00:45:10.703Z,5.20
2023-11-17T00:47:37.915Z,5.20
2023-11-17T00:50:05.390Z,5.20
2023-11-17T00:52:32.278Z,5.10
2023-11-17T00:55:05.859Z,5.10
2023-11-17T00:57:33.516Z,5.10
2023-11-17T01:00:00.368Z,5.00
2023-11-17T01:02:27.257Z,5.10
2023-11-17T01:04:54.468Z,5.10
2023-11-17T01:07:21.979Z,5.00
2023-11-17T01:09:48.923Z,5.00
2023-11-17T01:12:16.214Z,4.90
2023-11-17T01:14:43.292Z,5.00
2023-11-17T01:17:12.363Z,4.90
2023-11-17T01:19:41.545Z,4.80
2023-11-17T01:22:08.517Z,4.90
2023-11-17T01:24:35.424Z,4.80
2023-11-17T01:27:06.107Z,4.70
2023-11-17T01:29:33.843Z,4.80
2023-11-17T01:32:00.992Z,4.80
2023-11-17T01:34:28.848Z,4.70
2023-11-17T01:36:56.084Z,4.60
2023-11-17T01:39:23.292Z,4.70
2023-11-17T01:41:50.755Z,4.70
2023-11-17T01:44:17.934Z,4.70
2023-11-17T01:46:47.776Z,4.70
2023-11-17T01:49:16.925Z,4.80
2023-11-17T01:51:43.873Z,4.80
2023-11-17T01:54:13.513Z,4.80
2023-11-17T01:56:42.132Z,4.70
2023-11-17T01:59:09.050Z,4.80
2023-11-17T02:01:36.162Z,4.80
2023-11-17T02:04:04.170Z,4.80
2023-11-17T02:07:08.159Z,4.80
2023-11-17T02:09:45.677Z,4.80
2023-11-17T02:12:28.669Z,4.80
2023-11-17T02:15:09.978Z,4.80
2023-11-17T02:17:43.591Z,4.80
2023-11-17T02:20:13.557Z,4.80
2023-11-17T02:22:47.242Z,4.70
2023-11-17T02:25:23.096Z,4.70
2023-11-17T02:28:11.727Z,4.70
2023-11-17T02:30:42.583Z,4.70
2023-11-17T02:33:10.191Z,4.80
2023-11-17T02:35:37.387Z,4.80
2023-11-17T02:38:07.529Z,4.80
2023-11-17T02:40:37.113Z,4.80
2023-11-17T02:43:08.655Z,4.80
2023-11-17T02:45:37.986Z,4.80
2023-11-17T02:48:15.401Z,4.80
2023-11-17T02:51:15.023Z,4.90
2023-11-17T02:53:42.528Z,4.90
2023-11-17T02:56:10.331Z,4.80
2023-11-17T02:58:37.316Z,4.80
2023-11-17T03:01:05.209Z,4.80
2023-11-17T03:03:35.297Z,4.90
2023-11-17T03:06:03.983Z,4.90
2023-11-17T03:08:31.447Z,4.90
2023-11-17T03:11:02.301Z,4.80
2023-11-17T03:13:29.923Z,4.90
2023-11-17T03:15:56.903Z,4.80
2023-11-17T03:18:27.832Z,4.80
2023-11-17T03:20:58.296Z,4.90
2023-11-17T03:23:25.292Z,4.80
2023-11-17T03:25:54.273Z,4.80
2023-11-17T03:28:21.320Z,4.90
2023-11-17T03:30:48.438Z,4.80
2023-11-17T03:33:15.334Z,4.80
2023-11-17T03:35:42.378Z,4.80
2023-11-17T03:38:15.306Z,4.80
2023-11-17T03:40:46.539Z,4.80
2023-11-17T03:43:14.640Z,4.80
2023-11-17T03:45:50.300Z,4.80
2023-11-17T03:48:18.021Z,4.60
2023-11-17T03:50:45.037Z,4.80
2023-11-17T03:53:12.070Z,4.80
2023-11-17T03:55:39.284Z,4.80
2023-11-17T03:58:07.567Z,4.80
2023-11-17T04:00:35.062Z,4.80
2023-11-17T04:03:02.773Z,4.80
2023-11-17T04:05:29.761Z,4.80
2023-11-17T04:07:56.710Z,4.80
2023-11-17T04:10:24.642Z,4.80
2023-11-17T04:12:52.030Z,4.70
2023-11-17T04:15:19.026Z,4.80
2023-11-17T04:17:45.925Z,4.80
2023-11-17T04:20:16.028Z,4.80
2023-11-17T04:22:44.582Z,4.70
2023-11-17T04:25:11.720Z,4.70
2023-11-17T04:27:39.757Z,4.70
2023-11-17T04:30:09.695Z,4.60
2023-11-17T04:32:36.740Z,4.70
2023-11-17T04:35:04.870Z,4.70
2023-11-17T04:37:31.771Z,4.70
2023-11-17T04:39:58.690Z,4.70
2023-11-17T04:42:25.594Z,4.70
2023-11-17T04:44:52.399Z,4.70
2023-11-17T04:47:19.267Z,4.60
2023-11-17T04:49:48.705Z,4.60
2023-11-17T04:52:15.704Z,4.60
2023-11-17T04:54:46.122Z,4.60
2023-11-17T04:57:15.623Z,4.60
2023-11-17T04:59:43.318Z,4.60
2023-11-17T05:02:10.232Z,4.60
2023-11-17T05:04:37.100Z,4.60
2023-11-17T05:07:04.271Z,4.60
2023-11-17T05:09:31.121Z,4.60
2023-11-17T05:11:57.952Z,4.50
2023-11-17T05:14:24.816Z,4.50
2023-11-17T05:16:53.613Z,4.50
2023-11-17T05:19:20.783Z,4.50
2023-11-17T05:21:47.675Z,4.60
2023-11-17T05:24:15.658Z,4.50
2023-11-17T05:26:42.476Z,4.60
2023-11-17T05:29:09.574Z,4.50
2023-11-17T05:31:45.572Z,4.50
2023-11-17T05:34:14.420Z,4.50
2023-11-17T05:36:42.737Z,4.50
2023-11-17T05:39:10.432Z,4.50
2023-11-17T05:41:37.286Z,4.50
2023-11-17T05:44:05.896Z,4.50
2023-11-17T05:46:32.911Z,4.40
2023-11-17T05:48:59.801Z,4.50
2023-11-17T05:51:26.783Z,4.50
2023-11-17T05:53:53.598Z,4.40
2023-11-17T05:56:21.037Z,4.50
2023-11-17T05:58:47.868Z,4.40
2023-11-17T06:01:15.141Z,4.40
2023-11-17T06:03:42.275Z,4.40
2023-11-17T06:06:10.550Z,4.40
2023-11-17T06:08:38.674Z,4.40
2023-11-17T06:11:09.971Z,4.40
2023-11-17T06:13:40.193Z,4.40
2023-11-17T06:16:07.384Z,4.40
2023-11-17T06:18:34.269Z,4.40
2023-11-17T06:21:01.048Z,4.40
2023-11-17T06:23:27.876Z,4.40
2023-11-17T06:25:54.658Z,4.30
2023-11-17T06:28:21.478Z,4.50
2023-11-17T06:30:48.309Z,4.40
2023-11-17T06:33:15.093Z,4.40
2023-11-17T06:35:41.931Z,4.50
2023-11-17T06:38:09.757Z,4.50
2023-11-17T06:40:36.762Z,4.40
2023-11-17T06:43:03.676Z,4.50
2023-11-17T06:45:30.460Z,4.40
2023-11-17T06:47:57.382Z,4.50
2023-11-17T06:50:24.248Z,4.50
2023-11-17T06:52:51.752Z,4.50
2023-11-17T06:55:18.660Z,4.50
2023-11-17T06:57:48.061Z,4.50
2023-11-17T07:00:18.465Z,4.50
2023-11-17T07:02:47.152Z,4.60
2023-11-17T07:05:15.865Z,4.60
2023-11-17T07:07:43.036Z,4.60
2023-11-17T07:10:16.255Z,4.60
2023-11-17T07:12:43.645Z,4.60
2023-11-17T07:15:12.572Z,4.60
2023-11-17T07:17:39.859Z,4.50
2023-11-17T07:20:11.183Z,4.50
2023-11-17T07:22:39.325Z,4.50
2023-11-17T07:25:06.771Z,4.60
2023-11-17T07:27:33.651Z,4.50
2023-11-17T07:30:00.833Z,4.50
2023-11-17T07:32:27.715Z,4.50
2023-11-17T07:34:54.577Z,4.50
2023-11-17T07:37:24.702Z,4.50
2023-11-17T07:39:51.800Z,4.50
2023-11-17T07:42:18.909Z,4.50
2023-11-17T07:44:45.713Z,4.50
2023-11-17T07:47:14.155Z,4.50
2023-11-17T07:49:41.084Z,4.50
2023-11-17T07:52:09.065Z,4.60
2023-11-17T07:54:37.107Z,4.60
2023-11-17T07:57:04.260Z,4.60
2023-11-17T07:59:32.026Z,4.60
2023-11-17T08:01:58.974Z,4.60
2023-11-17T08:04:26.247Z,4.50
2023-11-17T08:06:54.630Z,4.60
2023-11-17T08:09:21.713Z,4.60
2023-11-17T08:11:49.692Z,4.70
2023-11-17T08:14:16.665Z,4.60
2023-11-17T08:16:43.659Z,4.70
2023-11-17T08:19:18.715Z,4.70
2023-11-17T08:21:52.971Z,4.70
2023-11-17T08:24:22.344Z,4.80
2023-11-17T08:26:51.951Z,4.80
2023-11-17T08:29:22.547Z,4.80
2023-11-17T08:31:50.855Z,4.80
2023-11-17T08:34:17.892Z,4.70
2023-11-17T08:36:44.738Z,4.80
2023-11-17T08:39:22.824Z,4.80
2023-11-17T08:41:50.222Z,4.80
2023-11-17T08:44:17.545Z,4.70
2023-11-17T08:46:45.844Z,4.80
2023-11-17T08:49:13.269Z,4.80
2023-11-17T08:51:42.774Z,4.80
2023-11-17T08:54:10.386Z,4.80
2023-11-17T08:56:37.436Z,4.90
2023-11-17T08:59:04.267Z,4.80
2023-11-17T09:01:31.671Z,4.80
2023-11-17T09:03:58.820Z,4.90
2023-11-17T09:06:25.791Z,5.10
2023-11-17T09:08:52.609Z,5.00
2023-11-17T09:11:19.985Z,5.00
2023-11-17T09:13:46.783Z,5.10
2023-11-17T09:16:13.959Z,5.10
2023-11-17T09:18:40.830Z,5.10
2023-11-17T09:21:08.567Z,5.20
2023-11-17T09:23:35.840Z,5.20
2023-11-17T09:26:08.773Z,5.20
2023-11-17T09:28:35.751Z,5.20
2023-11-17T09:31:03.163Z,5.20
2023-11-17T09:33:30.213Z,5.30
2023-11-17T09:36:01.785Z,5.30
2023-11-17T09:38:36.843Z,5.30
2023-11-17T09:41:07.719Z,5.40
2023-11-17T09:43:48.665Z,5.50
2023-11-17T09:46:22.199Z,5.50
2023-11-17T09:48:54.757Z,5.50
2023-11-17T09:51:21.674Z,5.60
2023-11-17T09:53:49.427Z,5.60
2023-11-17T09:56:17.218Z,5.60
2023-11-17T09:58:46.047Z,5.60
2023-11-17T10:01:13.420Z,5.70
2023-11-17T10:03:41.842Z,5.70
2023-11-17T10:06:10.587Z,5.60
2023-11-17T10:08:40.640Z,5.70
2023-11-17T10:11:10.332Z,5.60
2023-11-17T10:13:37.422Z,5.60
2023-11-17T10:16:05.118Z,5.50
2023-11-17T10:18:33.621Z,5.50
2023-11-17T10:21:00.641Z,5.50
2023-11-17T10:23:28.440Z,5.40
2023-11-17T10:25:56.525Z,5.50
2023-11-17T10:28:26.038Z,5.40
2023-11-17T10:30:56.227Z,5.50
2023-11-17T10:33:31.223Z,5.50
2023-11-17T10:36:13.501Z,5.60
2023-11-17T10:38:43.684Z,5.60
2023-11-17T10:41:31.884Z,5.60
2023-11-17T10:44:00.625Z,5.60
2023-11-17T10:46:29.606Z,5.70
2023-11-17T10:49:06.405Z,5.70
2023-11-17T10:51:35.219Z,5.80
2023-11-17T10:54:07.519Z,5.70
2023-11-17T10:56:42.338Z,5.70
2023-11-17T10:59:19.933Z,5.80
2023-11-17T11:01:48.683Z,6.00
2023-11-17T11:04:20.609Z,5.80
2023-11-17T11:06:48.400Z,5.80
2023-11-17T11:09:19.160Z,5.80
2023-11-17T11:11:54.569Z,5.80
2023-11-17T11:14:22.230Z,5.80
2023-11-17T11:16:50.107Z,5.70
2023-11-17T11:19:24.635Z,5.70
2023-11-17T11:22:02.507Z,5.80
2023-11-17T11:24:41.931Z,5.70
2023-11-17T11:27:15.880Z,5.80
2023-11-17T11:29:44.390Z,5.80
2023-11-17T11:32:12.898Z,5.80
2023-11-17T11:34:40.542Z,5.80
2023-11-17T11:37:09.007Z,5.90
2023-11-17T11:39:36.074Z,5.90
2023-11-17T11:42:08.558Z,5.80
2023-11-17T11:44:36.484Z,5.80
2023-11-17T11:47:06.006Z,5.90
2023-11-17T11:49:35.765Z,5.90
2023-11-17T11:52:16.918Z,5.90
2023-11-17T11:54:46.571Z,5.90
2023-11-17T11:57:29.162Z,5.90
2023-11-17T12:00:14.524Z,5.90
2023-11-17T12:02:56.140Z,5.90
2023-11-17T12:05:26.413Z,5.80
2023-11-17T12:07:53.282Z,5.90
2023-11-17T12:10:20.247Z,5.90
2023-11-17T12:12:48.342Z,5.90
2023-11-17T12:15:15.197Z,5.90
2023-11-17T12:17:50.441Z,6.10
2023-11-17T12:20:30.569Z,5.90
2023-11-17T12:23:01.774Z,6.10
2023-11-17T12:25:31.248Z,6.10
2023-11-17T12:28:02.456Z,6.10
2023-11-17T12:30:29.836Z,6.00
2023-11-17T12:32:58.628Z,6.10
2023-11-17T12:35:30.942Z,6.10
2023-11-17T12:37:58.239Z,6.10
2023-11-17T12:40:29.309Z,6.20
2023-11-17T12:42:59.065Z,6.20
2023-11-17T12:45:29.327Z,6.10
2023-11-17T12:48:01.062Z,6.10
2023-11-17T12:50:40.712Z,6.10
2023-11-17T12:53:09.534Z,6.20
2023-11-17T12:55:49.711Z,6.20
2023-11-17T12:58:16.970Z,6.20
2023-11-17T13:00:47.710Z,6.10
2023-11-17T13:03:15.616Z,6.20
2023-11-17T13:05:43.126Z,6.30
2023-11-17T13:08:10.020Z,6.20
2023-11-17T13:10:37.194Z,6.20
2023-11-17T13:13:07.463Z,6.10
2023-11-17T13:15:34.832Z,6.10
2023-11-17T13:18:01.767Z,6.10
2023-11-17T13:20:31.557Z,6.10
2023-11-17T13:22:58.354Z,6.00
2023-11-17T13:25:27.427Z,6.00
2023-11-17T13:27:54.628Z,6.00
2023-11-17T13:30:22.716Z,6.00
2023-11-17T13:32:57.857Z,6.00
2023-11-17T13:35:28.918Z,6.10
2023-11-17T13:38:05.068Z,6.00
2023-11-17T13:40:35.134Z,6.00
2023-11-17T13:43:12.610Z,5.90
2023-11-17T13:45:41.144Z,5.90
2023-11-17T13:48:12.027Z,5.90
2023-11-17T13:50:52.797Z,6.00
2023-11-17T13:53:22.138Z,5.90
2023-11-17T13:55:49.957Z,5.90
2023-11-17T13:58:17.023Z,5.70
2023-11-17T14:00:47.478Z,5.80
2023-11-17T14:03:14.878Z,5.80
2023-11-17T14:05:43.521Z,5.90
2023-11-17T14:08:12.494Z,5.80
2023-11-17T14:10:39.755Z,5.90
2023-11-17T14:13:06.903Z,5.90
2023-11-17T14:15:43.285Z,5.90
2023-11-17T14:18:18.697Z,5.80
2023-11-17T14:20:45.911Z,5.80
2023-11-17T14:23:12.748Z,5.80
2023-11-17T14:25:39.653Z,5.80
2023-11-17T14:28:06.556Z,5.90
2023-11-17T14:30:33.446Z,5.80
2023-11-17T14:33:01.402Z,5.80
2023-11-17T14:35:28.470Z,5.90
2023-11-17T14:37:56.320Z,5.90
2023-11-17T14:40:24.369Z,5.90
2023-11-17T14:42:52.744Z,5.90
2023-11-17T14:45:21.578Z,5.90
2023-11-17T14:47:49.343Z,5.90
2023-11-17T14:50:18.157Z,6.00
2023-11-17T14:52:54.057Z,5.90
2023-11-17T14:55:23.705Z,5.90
2023-11-17T14:57:50.869Z,5.90
2023-11-17T15:00:21.397Z,5.90
2023-11-17T15:02:49.265Z,5.90
2023-11-17T15:05:20.541Z,5.90
2023-11-17T15:07:49.043Z,6.00
2023-11-17T15:10:19.528Z,5.90
2023-11-17T15:12:48.938Z,6.00
2023-11-17T15:15:31.198Z,5.80
2023-11-17T15:18:00.303Z,5.80
2023-11-17T15:20:34.311Z,5.70
2023-11-17T15:23:08.001Z,5.60
2023-11-17T15:25:38.291Z,5.60
2023-11-17T15:28:17.121Z,5.50
2023-11-17T15:30:48.185Z,5.50
2023-11-17T15:33:15.463Z,5.40
2023-11-17T15:35:42.288Z,5.40
2023-11-17T15:38:09.013Z,5.40
2023-11-17T15:40:37.564Z,5.30
2023-11-17T15:43:08.606Z,5.30
2023-11-17T15:45:35.904Z,5.30
2023-11-17T15:48:04.469Z,5.20
2023-11-17T15:50:35.142Z,5.20
2023-11-17T15:53:01.946Z,5.10
2023-11-17T15:55:28.765Z,5.00
2023-11-17T15:57:55.912Z,5.00
2023-11-17T16:00:27.638Z,4.90
2023-11-17T16:02:54.674Z,4.90
2023-11-17T16:05:22.773Z,4.90
2023-11-17T16:07:51.425Z,4.80
2023-11-17T16:10:22.444Z,4.70
2023-11-17T16:12:56.035Z,4.80
2023-11-17T16:15:23.057Z,4.70
2023-11-17T16:17:57.780Z,4.70
2023-11-17T16:20:32.269Z,4.70
2023-11-17T16:23:01.226Z,4.70
2023-11-17T16:25:30.135Z,4.70
2023-11-17T16:27:57.009Z,4.80
2023-11-17T16:30:23.765Z,4.80
2023-11-17T16:32:53.008Z,4.70
2023-11-17T16:35:23.354Z,4.60
2023-11-17T16:37:51.324Z,4.50
2023-11-17T16:40:26.204Z,4.50
2023-11-17T16:43:04.014Z,4.40
2023-11-17T16:45:33.349Z,4.40
2023-11-17T16:48:01.430Z,4.40
2023-11-17T16:50:28.908Z,4.30
2023-11-17T16:52:57.137Z,4.30
2023-11-17T16:55:24.129Z,4.30
2023-11-17T16:57:52.730Z,4.20
2023-11-17T17:00:23.528Z,4.20
2023-11-17T17:02:51.738Z,4.20
2023-11-17T17:05:18.919Z,4.30
2023-11-17T17:07:47.861Z,4.30
2023-11-17T17:10:20.165Z,4.20
2023-11-17T17:12:47.080Z,4.20
2023-11-17T17:15:15.624Z,4.10
2023-11-17T17:17:49.989Z,4.10
2023-11-17T17:20:17.426Z,3.90
2023-11-17T17:22:45.808Z,4.00
2023-11-17T17:25:16.552Z,3.90
2023-11-17T17:27:49.412Z,3.80
2023-11-17T17:30:17.711Z,3.70
2023-11-17T17:32:48.760Z,3.80
2023-11-17T17:35:16.424Z,3.70
2023-11-17T17:37:43.438Z,3.80
2023-11-17T17:40:15.120Z,3.80
2023-11-17T17:42:42.476Z,3.80
2023-11-17T17:45:16.634Z,3.90
2023-11-17T17:47:43.682Z,3.80
2023-11-17T17:50:13.233Z,3.80
2023-11-17T17:52:41.255Z,3.80
2023-11-17T17:55:09.587Z,3.80
2023-11-17T17:57:37.078Z,3.80
2023-11-17T18:00:07.073Z,3.70
2023-11-17T18:02:36.688Z,3.70
2023-11-17T18:05:07.510Z,3.80
2023-11-17T18:07:34.360Z,3.70
2023-11-17T18:14:22.982Z,3.70
2023-11-17T18:16:50.406Z,3.70
2023-11-17T18:19:17.484Z,3.70
2023-11-17T18:21:44.448Z,3.70
2023-11-17T18:24:11.377Z,3.70
2023-11-17T18:26:45.540Z,3.60
2023-11-17T18:29:20.488Z,3.60
2023-11-17T18:31:49.761Z,3.60
2023-11-17T18:34:17.324Z,3.50
2023-11-17T18:36:44.866Z,3.50
2023-11-17T18:39:12.875Z,3.40
2023-11-17T18:41:41.080Z,3.40
2023-11-17T18:44:08.801Z,3.40
2023-11-17T18:46:36.323Z,3.40
2023-11-17T18:49:04.666Z,3.40
2023-11-17T18:51:31.593Z,3.40
2023-11-17T18:53:59.226Z,3.40
2023-11-17T18:56:26.452Z,3.30
2023-11-17T18:58:53.466Z,3.30
2023-11-17T19:01:21.056Z,3.30
2023-11-17T19:03:47.941Z,3.30
2023-11-17T19:06:15.048Z,3.20
2023-11-17T19:08:42.039Z,3.20
2023-11-17T19:11:11.175Z,3.20
2023-11-17T19:13:38.270Z,3.10
2023-11-17T19:16:05.816Z,3.00
2023-11-17T19:18:32.763Z,3.00
2023-11-17T19:20:59.591Z,3.00
2023-11-17T19:23:28.189Z,2.90
2023-11-17T19:25:55.200Z,3.00
2023-11-17T19:28:23.693Z,3.00
2023-11-17T19:30:51.023Z,2.90
2023-11-17T19:33:24.267Z,2.90
2023-11-17T19:36:01.236Z,2.90
2023-11-17T19:38:34.419Z,2.80
2023-11-17T19:41:01.501Z,2.80
2023-11-17T19:43:28.508Z,2.80
2023-11-17T19:45:57.204Z,2.80
2023-11-17T19:48:24.259Z,2.80
2023-11-17T19:50:51.388Z,2.80
2023-11-17T19:53:18.302Z,2.80
2023-11-17T19:55:46.251Z,2.80
2023-11-17T19:58:15.224Z,2.70
2023-11-17T20:00:42.991Z,2.70
2023-11-17T20:03:10.095Z,2.70
2023-11-17T20:05:37.078Z,2.80
2023-11-17T20:08:05.299Z,2.80
2023-11-17T20:10:32.330Z,2.90
2023-11-17T20:12:59.086Z,2.90
2023-11-17T20:15:25.837Z,3.00
2023-11-17T20:17:56.481Z,2.90
2023-11-17T20:20:26.658Z,2.90
2023-11-17T20:22:55.171Z,2.90
2023-11-17T20:25:24.805Z,2.90
2023-11-17T20:27:52.553Z,3.00
2023-11-17T20:30:21.632Z,3.00
2023-11-17T20:32:50.450Z,3.00
2023-11-17T20:35:17.970Z,3.00
2023-11-17T20:37:44.869Z,3.00
2023-11-17T20:40:15.227Z,3.10
2023-11-17T20:42:44.045Z,3.10
2023-11-17T20:45:16.161Z,3.10
2023-11-17T20:47:44.506Z,3.20
2023-11-17T20:50:17.045Z,3.20
2023-11-17T20:52:49.166Z,3.20
2023-11-17T20:55:15.969Z,3.20
2023-11-17T20:57:44.853Z,3.20
2023-11-17T21:00:15.655Z,3.30
2023-11-17T21:02:43.394Z,3.30
2023-11-17T21:05:10.990Z,3.40
2023-11-17T21:07:39.731Z,3.40
2023-11-17T21:10:13.486Z,3.40
2023-11-17T21:12:43.089Z,3.40
2023-11-17T21:15:13.256Z,3.40
2023-11-17T21:17:45.440Z,3.40
2023-11-17T21:20:18.316Z,3.40
2023-11-17T21:22:47.271Z,3.40
2023-11-17T21:25:15.152Z,3.30
2023-11-17T21:27:42.512Z,3.30
2023-11-17T21:30:16.624Z,3.30
2023-11-17T21:32:45.503Z,3.40
2023-11-17T21:35:16.025Z,3.40
2023-11-17T21:37:43.780Z,3.30
2023-11-17T21:40:14.916Z,3.30
2023-11-17T21:42:45.946Z,3.40
2023-11-17T21:45:15.878Z,3.40
2023-11-17T21:47:47.897Z,3.40
2023-11-17T21:50:16.566Z,3.40
2023-11-17T21:52:44.572Z,3.50
2023-11-17T21:55:15.015Z,3.40
2023-11-17T21:57:42.817Z,3.40
2023-11-17T22:00:14.505Z,3.50
2023-11-17T22:02:45.530Z,3.50
2023-11-17T22:05:13.623Z,3.40
2023-11-17T22:07:41.266Z,3.40
2023-11-17T22:10:15.478Z,3.50
2023-11-17T22:12:43.672Z,3.50
2023-11-17T22:15:13.521Z,3.50
2023-11-17T22:17:43.321Z,3.50
2023-11-17T22:20:12.539Z,3.50
2023-11-17T22:22:40.741Z,3.40
2023-11-17T22:25:13.633Z,3.50
2023-11-17T22:27:44.549Z,3.50
2023-11-17T22:30:25.580Z,3.50
2023-11-17T22:32:54.524Z,3.60
2023-11-17T22:35:21.560Z,3.60
2023-11-17T22:37:54.182Z,3.60
2023-11-17T22:40:24.082Z,3.50
2023-11-17T22:42:52.899Z,3.60
2023-11-17T22:45:20.336Z,3.50
2023-11-17T22:47:47.868Z,3.50
2023-11-17T22:50:17.673Z,3.60
2023-11-17T22:52:45.993Z,3.50
2023-11-17T22:55:16.251Z,3.60
2023-11-17T22:57:44.418Z,3.60
2023-11-17T23:00:38.119Z,3.60
2023-11-17T23:03:08.571Z,3.60
2023-11-17T23:05:43.548Z,3.70
2023-11-17T23:08:13.311Z,3.70
2023-11-17T23:10:40.357Z,3.70
2023-11-17T23:13:08.343Z,3.60
2023-11-17T23:15:35.246Z,3.60
2023-11-17T23:18:02.460Z,3.60
2023-11-17T23:20:30.296Z,3.60
2023-11-17T23:22:58.135Z,3.70
2023-11-17T23:25:26.504Z,3.60
2023-11-17T23:27:53.713Z,3.70
2023-11-17T23:30:20.630Z,3.70
2023-11-17T23:32:48.373Z,3.70
2023-11-17T23:35:15.248Z,3.80
2023-11-17T23:37:42.031Z,3.80
2023-11-17T23:40:17.137Z,3.80
2023-11-17T23:42:49.868Z,3.70
2023-11-17T23:45:17.856Z,3.70
2023-11-17T23:47:45.156Z,3.70
2023-11-17T23:50:12.689Z,3.70
2023-11-17T23:52:39.586Z,3.70
2023-11-17T23:55:07.028Z,3.60
2023-11-17T23:57:33.727Z,3.70
